sensor_id;sensor_type;location;lat;lon;timestamp;P1;durP1;ratioP1;P2;durP2;ratioP2
32491;SDS011;20605;49.742;18.802;2023-01-10T00:02:09;44.00;;;25.80;;
32491;SDS011;20605;49.742;18.802;2023-01-10T00:04:34;35.10;;;22.70;;
32491;SDS011;20605;49.742;18.802;2023-01-10T00:07:03;28.10;;;18.10;;
32491;SDS011;20605;49.742;18.802;2023-01-10T00:09:29;46.00;;;25.00;;
32491;SDS011;20605;49.742;18.802;2023-01-10T00:11:55;30.30;;;18.90;;
32491;SDS011;20605;49.742;18.802;2023-01-10T00:14:39;23.60;;;16.00;;
32491;SDS011;20605;49.742;18.802;2023-01-10T00:17:05;28.30;;;16.90;;
32491;SDS011;20605;49.742;18.802;2023-01-10T00:19:44;23.60;;;14.50;;
32491;SDS011;20605;49.742;18.802;2023-01-10T00:22:11;21.10;;;14.00;;
32491;SDS011;20605;49.742;18.802;2023-01-10T00:24:39;28.10;;;17.40;;
32491;SDS011;20605;49.742;18.802;2023-01-10T00:29:36;19.50;;;12.50;;
32491;SDS011;20605;49.742;18.802;2023-01-10T00:32:09;17.40;;;12.60;;
32491;SDS011;20605;49.742;18.802;2023-01-10T00:34:35;17.90;;;12.60;;
32491;SDS011;20605;49.742;18.802;2023-01-10T00:37:01;19.20;;;13.60;;
32491;SDS011;20605;49.742;18.802;2023-01-10T00:39:27;21.20;;;13.80;;
32491;SDS011;20605;49.742;18.802;2023-01-10T00:41:53;24.00;;;14.20;;
32491;SDS011;20605;49.742;18.802;2023-01-10T00:44:37;25.40;;;17.30;;
32491;SDS011;20605;49.742;18.802;2023-01-10T00:47:03;30.80;;;21.20;;
32491;SDS011;20605;49.742;18.802;2023-01-10T00:49:29;27.60;;;19.30;;
32491;SDS011;20605;49.742;18.802;2023-01-10T00:52:03;23.90;;;16.90;;
32491;SDS011;20605;49.742;18.802;2023-01-10T00:54:29;30.70;;;20.50;;
32491;SDS011;20605;49.742;18.802;2023-01-10T00:57:01;25.70;;;18.30;;
32491;SDS011;20605;49.742;18.802;2023-01-10T00:59:28;33.20;;;20.30;;
32491;SDS011;20605;49.742;18.802;2023-01-10T01:01:54;30.60;;;20.00;;
32491;SDS011;20605;49.742;18.802;2023-01-10T01:04:20;30.50;;;18.50;;
32491;SDS011;20605;49.742;18.802;2023-01-10T01:06:47;26.70;;;18.30;;
32491;SDS011;20605;49.742;18.802;2023-01-10T01:09:14;28.30;;;18.00;;
32491;SDS011;20605;49.742;18.802;2023-01-10T01:11:42;27.60;;;18.70;;
32491;SDS011;20605;49.742;18.802;2023-01-10T01:14:07;25.80;;;18.00;;
32491;SDS011;20605;49.742;18.802;2023-01-10T01:16:34;25.70;;;17.50;;
32491;SDS011;20605;49.742;18.802;2023-01-10T01:19:00;26.90;;;17.90;;
32491;SDS011;20605;49.742;18.802;2023-01-10T01:21:26;24.60;;;16.40;;
32491;SDS011;20605;49.742;18.802;2023-01-10T01:23:55;22.80;;;16.70;;
32491;SDS011;20605;49.742;18.802;2023-01-10T01:26:21;23.60;;;15.70;;
32491;SDS011;20605;49.742;18.802;2023-01-10T01:28:48;20.70;;;13.10;;
32491;SDS011;20605;49.742;18.802;2023-01-10T01:31:14;21.70;;;13.70;;
32491;SDS011;20605;49.742;18.802;2023-01-10T01:33:40;21.50;;;13.40;;
32491;SDS011;20605;49.742;18.802;2023-01-10T01:36:07;20.90;;;12.50;;
32491;SDS011;20605;49.742;18.802;2023-01-10T01:38:34;21.40;;;13.00;;
32491;SDS011;20605;49.742;18.802;2023-01-10T01:41:01;17.50;;;11.90;;
32491;SDS011;20605;49.742;18.802;2023-01-10T01:43:28;18.60;;;10.60;;
32491;SDS011;20605;49.742;18.802;2023-01-10T01:45:59;17.70;;;11.10;;
32491;SDS011;20605;49.742;18.802;2023-01-10T01:56:03;13.10;;;8.00;;
32491;SDS011;20605;49.742;18.802;2023-01-10T01:58:44;15.10;;;8.20;;
32491;SDS011;20605;49.742;18.802;2023-01-10T02:01:15;16.90;;;9.50;;
32491;SDS011;20605;49.742;18.802;2023-01-10T02:03:42;16.20;;;8.40;;
32491;SDS011;20605;49.742;18.802;2023-01-10T02:06:14;15.20;;;8.10;;
32491;SDS011;20605;49.742;18.802;2023-01-10T02:08:43;14.90;;;8.70;;
32491;SDS011;20605;49.742;18.802;2023-01-10T02:11:20;11.50;;;7.70;;
32491;SDS011;20605;49.742;18.802;2023-01-10T02:13:47;9.20;;;6.70;;
32491;SDS011;20605;49.742;18.802;2023-01-10T02:16:15;10.20;;;5.90;;
32491;SDS011;20605;49.742;18.802;2023-01-10T02:18:50;12.20;;;7.00;;
32491;SDS011;20605;49.742;18.802;2023-01-10T02:30:21;11.40;;;8.10;;
32491;SDS011;20605;49.742;18.802;2023-01-10T02:39:04;12.80;;;8.00;;
32491;SDS011;20605;49.742;18.802;2023-01-10T02:41:44;12.10;;;7.90;;
32491;SDS011;20605;49.742;18.802;2023-01-10T02:47:15;10.50;;;6.80;;
32491;SDS011;20605;49.742;18.802;2023-01-10T02:49:50;10.90;;;7.70;;
32491;SDS011;20605;49.742;18.802;2023-01-10T02:52:18;10.20;;;7.20;;
32491;SDS011;20605;49.742;18.802;2023-01-10T02:54:53;11.00;;;7.20;;
32491;SDS011;20605;49.742;18.802;2023-01-10T02:57:39;12.50;;;7.20;;
32491;SDS011;20605;49.742;18.802;2023-01-10T03:05:18;10.20;;;6.20;;
32491;SDS011;20605;49.742;18.802;2023-01-10T03:08:09;8.50;;;5.10;;
32491;SDS011;20605;49.742;18.802;2023-01-10T03:13:29;8.00;;;4.50;;
32491;SDS011;20605;49.742;18.802;2023-01-10T03:16:12;5.20;;;3.40;;
32491;SDS011;20605;49.742;18.802;2023-01-10T03:21:27;4.80;;;3.10;;
32491;SDS011;20605;49.742;18.802;2023-01-10T03:23:57;7.50;;;4.10;;
32491;SDS011;20605;49.742;18.802;2023-01-10T03:29:33;3.60;;;2.40;;
32491;SDS011;20605;49.742;18.802;2023-01-10T03:32:06;3.30;;;2.50;;
32491;SDS011;20605;49.742;18.802;2023-01-10T03:34:36;6.10;;;2.60;;
32491;SDS011;20605;49.742;18.802;2023-01-10T03:37:07;5.20;;;3.20;;
32491;SDS011;20605;49.742;18.802;2023-01-10T03:39:46;4.90;;;3.40;;
32491;SDS011;20605;49.742;18.802;2023-01-10T03:45:48;3.90;;;2.60;;
32491;SDS011;20605;49.742;18.802;2023-01-10T03:48:18;3.00;;;2.60;;
32491;SDS011;20605;49.742;18.802;2023-01-10T03:50:51;4.90;;;3.10;;
32491;SDS011;20605;49.742;18.802;2023-01-10T03:53:18;5.40;;;3.10;;
32491;SDS011;20605;49.742;18.802;2023-01-10T03:55:44;4.20;;;3.60;;
32491;SDS011;20605;49.742;18.802;2023-01-10T03:58:10;3.30;;;2.80;;
32491;SDS011;20605;49.742;18.802;2023-01-10T04:00:36;3.90;;;2.80;;
32491;SDS011;20605;49.742;18.802;2023-01-10T04:03:01;3.80;;;2.80;;
32491;SDS011;20605;49.742;18.802;2023-01-10T04:05:27;5.00;;;3.00;;
32491;SDS011;20605;49.742;18.802;2023-01-10T04:07:53;5.30;;;3.00;;
32491;SDS011;20605;49.742;18.802;2023-01-10T04:10:19;3.70;;;2.90;;
32491;SDS011;20605;49.742;18.802;2023-01-10T04:12:45;3.80;;;2.40;;
32491;SDS011;20605;49.742;18.802;2023-01-10T04:15:12;4.00;;;2.90;;
32491;SDS011;20605;49.742;18.802;2023-01-10T04:17:37;3.40;;;2.80;;
32491;SDS011;20605;49.742;18.802;2023-01-10T04:20:03;3.60;;;2.80;;
32491;SDS011;20605;49.742;18.802;2023-01-10T04:22:30;4.80;;;3.70;;
32491;SDS011;20605;49.742;18.802;2023-01-10T04:24:56;3.90;;;3.10;;
32491;SDS011;20605;49.742;18.802;2023-01-10T04:27:21;4.80;;;3.40;;
32491;SDS011;20605;49.742;18.802;2023-01-10T04:29:48;6.50;;;3.30;;
32491;SDS011;20605;49.742;18.802;2023-01-10T04:32:14;5.00;;;3.30;;
32491;SDS011;20605;49.742;18.802;2023-01-10T04:34:40;6.60;;;5.00;;
32491;SDS011;20605;49.742;18.802;2023-01-10T04:37:06;6.00;;;3.70;;
32491;SDS011;20605;49.742;18.802;2023-01-10T04:39:31;5.00;;;4.20;;
32491;SDS011;20605;49.742;18.802;2023-01-10T04:41:57;4.80;;;3.80;;
32491;SDS011;20605;49.742;18.802;2023-01-10T04:44:23;3.80;;;3.10;;
32491;SDS011;20605;49.742;18.802;2023-01-10T04:46:49;5.00;;;3.60;;
32491;SDS011;20605;49.742;18.802;2023-01-10T04:49:14;5.10;;;3.90;;
32491;SDS011;20605;49.742;18.802;2023-01-10T04:51:40;5.80;;;3.60;;
32491;SDS011;20605;49.742;18.802;2023-01-10T04:54:06;8.80;;;6.00;;
32491;SDS011;20605;49.742;18.802;2023-01-10T04:56:32;6.80;;;4.70;;
32491;SDS011;20605;49.742;18.802;2023-01-10T04:58:58;5.30;;;4.20;;
32491;SDS011;20605;49.742;18.802;2023-01-10T05:01:24;6.20;;;4.20;;
32491;SDS011;20605;49.742;18.802;2023-01-10T05:03:51;5.00;;;3.90;;
32491;SDS011;20605;49.742;18.802;2023-01-10T05:06:20;4.40;;;3.90;;
32491;SDS011;20605;49.742;18.802;2023-01-10T05:08:47;7.10;;;3.70;;
32491;SDS011;20605;49.742;18.802;2023-01-10T05:11:13;6.50;;;4.20;;
32491;SDS011;20605;49.742;18.802;2023-01-10T05:13:40;6.10;;;3.60;;
32491;SDS011;20605;49.742;18.802;2023-01-10T05:16:06;9.60;;;6.60;;
32491;SDS011;20605;49.742;18.802;2023-01-10T05:18:32;15.00;;;9.40;;
32491;SDS011;20605;49.742;18.802;2023-01-10T05:20:59;5.40;;;4.60;;
32491;SDS011;20605;49.742;18.802;2023-01-10T05:23:26;19.30;;;12.30;;
32491;SDS011;20605;49.742;18.802;2023-01-10T05:25:53;24.30;;;15.60;;
32491;SDS011;20605;49.742;18.802;2023-01-10T05:28:19;16.70;;;9.30;;
32491;SDS011;20605;49.742;18.802;2023-01-10T05:30:45;8.60;;;5.80;;
32491;SDS011;20605;49.742;18.802;2023-01-10T05:33:10;41.20;;;23.10;;
32491;SDS011;20605;49.742;18.802;2023-01-10T05:35:36;17.30;;;10.30;;
32491;SDS011;20605;49.742;18.802;2023-01-10T05:38:02;17.80;;;11.00;;
32491;SDS011;20605;49.742;18.802;2023-01-10T05:40:28;29.40;;;15.80;;
32491;SDS011;20605;49.742;18.802;2023-01-10T05:42:54;24.60;;;11.10;;
32491;SDS011;20605;49.742;18.802;2023-01-10T05:45:20;38.80;;;19.50;;
32491;SDS011;20605;49.742;18.802;2023-01-10T05:47:46;51.50;;;22.20;;
32491;SDS011;20605;49.742;18.802;2023-01-10T05:50:12;72.30;;;29.70;;
32491;SDS011;20605;49.742;18.802;2023-01-10T05:52:37;60.70;;;26.70;;
32491;SDS011;20605;49.742;18.802;2023-01-10T05:55:04;24.00;;;11.40;;
32491;SDS011;20605;49.742;18.802;2023-01-10T05:57:30;79.50;;;31.90;;
32491;SDS011;20605;49.742;18.802;2023-01-10T05:59:56;62.10;;;26.60;;
32491;SDS011;20605;49.742;18.802;2023-01-10T06:02:23;33.70;;;16.20;;
32491;SDS011;20605;49.742;18.802;2023-01-10T06:04:51;47.10;;;21.40;;
32491;SDS011;20605;49.742;18.802;2023-01-10T06:07:19;35.90;;;18.20;;
32491;SDS011;20605;49.742;18.802;2023-01-10T06:09:46;49.60;;;24.40;;
32491;SDS011;20605;49.742;18.802;2023-01-10T06:12:12;82.70;;;44.00;;
32491;SDS011;20605;49.742;18.802;2023-01-10T06:14:39;43.60;;;23.10;;
32491;SDS011;20605;49.742;18.802;2023-01-10T06:17:05;46.50;;;27.30;;
32491;SDS011;20605;49.742;18.802;2023-01-10T06:19:34;23.30;;;16.00;;
32491;SDS011;20605;49.742;18.802;2023-01-10T06:22:00;35.50;;;22.80;;
32491;SDS011;20605;49.742;18.802;2023-01-10T06:24:26;20.30;;;12.70;;
32491;SDS011;20605;49.742;18.802;2023-01-10T06:26:53;8.10;;;6.90;;
32491;SDS011;20605;49.742;18.802;2023-01-10T06:29:18;6.80;;;5.80;;
32491;SDS011;20605;49.742;18.802;2023-01-10T06:31:44;8.90;;;6.30;;
32491;SDS011;20605;49.742;18.802;2023-01-10T06:34:10;10.20;;;7.40;;
32491;SDS011;20605;49.742;18.802;2023-01-10T06:36:36;6.70;;;5.30;;
32491;SDS011;20605;49.742;18.802;2023-01-10T06:39:02;8.30;;;6.50;;
32491;SDS011;20605;49.742;18.802;2023-01-10T06:41:28;11.60;;;7.40;;
32491;SDS011;20605;49.742;18.802;2023-01-10T06:43:54;10.40;;;6.30;;
32491;SDS011;20605;49.742;18.802;2023-01-10T06:46:20;9.50;;;6.10;;
32491;SDS011;20605;49.742;18.802;2023-01-10T06:48:46;7.30;;;5.60;;
32491;SDS011;20605;49.742;18.802;2023-01-10T06:51:13;7.80;;;5.30;;
32491;SDS011;20605;49.742;18.802;2023-01-10T06:53:40;7.50;;;5.60;;
32491;SDS011;20605;49.742;18.802;2023-01-10T06:56:07;6.30;;;5.00;;
32491;SDS011;20605;49.742;18.802;2023-01-10T06:58:34;6.70;;;5.00;;
32491;SDS011;20605;49.742;18.802;2023-01-10T07:01:06;8.40;;;6.40;;
32491;SDS011;20605;49.742;18.802;2023-01-10T07:03:39;16.90;;;10.50;;
32491;SDS011;20605;49.742;18.802;2023-01-10T07:06:05;8.60;;;5.80;;
32491;SDS011;20605;49.742;18.802;2023-01-10T07:08:38;9.70;;;6.30;;
32491;SDS011;20605;49.742;18.802;2023-01-10T07:11:06;23.00;;;14.50;;
32491;SDS011;20605;49.742;18.802;2023-01-10T07:13:33;17.60;;;10.20;;
32491;SDS011;20605;49.742;18.802;2023-01-10T07:16:06;19.60;;;11.00;;
32491;SDS011;20605;49.742;18.802;2023-01-10T07:18:37;18.50;;;10.30;;
32491;SDS011;20605;49.742;18.802;2023-01-10T07:21:04;10.50;;;7.20;;
32491;SDS011;20605;49.742;18.802;2023-01-10T07:23:31;13.00;;;8.20;;
32491;SDS011;20605;49.742;18.802;2023-01-10T07:26:01;11.30;;;7.40;;
32491;SDS011;20605;49.742;18.802;2023-01-10T07:28:32;8.80;;;5.70;;
32491;SDS011;20605;49.742;18.802;2023-01-10T07:30:59;10.80;;;6.60;;
32491;SDS011;20605;49.742;18.802;2023-01-10T07:33:26;14.50;;;7.00;;
32491;SDS011;20605;49.742;18.802;2023-01-10T07:35:53;10.90;;;6.00;;
32491;SDS011;20605;49.742;18.802;2023-01-10T07:38:19;12.90;;;7.10;;
32491;SDS011;20605;49.742;18.802;2023-01-10T07:40:45;9.40;;;5.60;;
32491;SDS011;20605;49.742;18.802;2023-01-10T07:43:10;11.00;;;6.10;;
32491;SDS011;20605;49.742;18.802;2023-01-10T07:45:36;9.20;;;6.50;;
32491;SDS011;20605;49.742;18.802;2023-01-10T07:48:03;15.00;;;8.00;;
32491;SDS011;20605;49.742;18.802;2023-01-10T07:50:31;13.80;;;7.70;;
32491;SDS011;20605;49.742;18.802;2023-01-10T07:53:06;11.00;;;7.50;;
32491;SDS011;20605;49.742;18.802;2023-01-10T07:55:34;13.60;;;8.20;;
32491;SDS011;20605;49.742;18.802;2023-01-10T07:58:03;11.60;;;8.30;;
32491;SDS011;20605;49.742;18.802;2023-01-10T08:00:32;10.40;;;7.80;;
32491;SDS011;20605;49.742;18.802;2023-01-10T08:02:59;16.70;;;10.40;;
32491;SDS011;20605;49.742;18.802;2023-01-10T08:05:25;12.80;;;8.10;;
32491;SDS011;20605;49.742;18.802;2023-01-10T08:07:51;14.20;;;8.80;;
32491;SDS011;20605;49.742;18.802;2023-01-10T08:10:17;27.00;;;14.00;;
32491;SDS011;20605;49.742;18.802;2023-01-10T08:12:43;13.90;;;8.40;;
32491;SDS011;20605;49.742;18.802;2023-01-10T08:15:10;20.00;;;12.50;;
32491;SDS011;20605;49.742;18.802;2023-01-10T08:17:36;15.60;;;9.60;;
32491;SDS011;20605;49.742;18.802;2023-01-10T08:20:02;5.70;;;4.30;;
32491;SDS011;20605;49.742;18.802;2023-01-10T08:22:28;8.30;;;5.70;;
32491;SDS011;20605;49.742;18.802;2023-01-10T08:24:54;10.10;;;6.50;;
32491;SDS011;20605;49.742;18.802;2023-01-10T08:27:19;9.30;;;6.60;;
32491;SDS011;20605;49.742;18.802;2023-01-10T08:29:46;13.90;;;8.80;;
32491;SDS011;20605;49.742;18.802;2023-01-10T08:32:11;6.80;;;5.10;;
32491;SDS011;20605;49.742;18.802;2023-01-10T08:34:37;9.90;;;6.40;;
32491;SDS011;20605;49.742;18.802;2023-01-10T08:37:03;8.50;;;5.80;;
32491;SDS011;20605;49.742;18.802;2023-01-10T08:39:30;8.70;;;6.00;;
32491;SDS011;20605;49.742;18.802;2023-01-10T08:41:56;10.70;;;7.00;;
32491;SDS011;20605;49.742;18.802;2023-01-10T08:44:22;9.00;;;5.80;;
32491;SDS011;20605;49.742;18.802;2023-01-10T08:46:47;11.70;;;7.10;;
32491;SDS011;20605;49.742;18.802;2023-01-10T08:49:14;19.60;;;12.00;;
32491;SDS011;20605;49.742;18.802;2023-01-10T08:51:39;15.10;;;8.90;;
32491;SDS011;20605;49.742;18.802;2023-01-10T08:54:05;46.90;;;23.30;;
32491;SDS011;20605;49.742;18.802;2023-01-10T08:56:31;31.90;;;16.40;;
32491;SDS011;20605;49.742;18.802;2023-01-10T08:58:57;26.70;;;13.50;;
32491;SDS011;20605;49.742;18.802;2023-01-10T09:01:23;28.00;;;14.00;;
32491;SDS011;20605;49.742;18.802;2023-01-10T09:03:49;21.90;;;13.30;;
32491;SDS011;20605;49.742;18.802;2023-01-10T09:06:16;34.60;;;21.00;;
32491;SDS011;20605;49.742;18.802;2023-01-10T09:08:42;14.40;;;9.40;;
32491;SDS011;20605;49.742;18.802;2023-01-10T09:11:10;25.90;;;15.00;;
32491;SDS011;20605;49.742;18.802;2023-01-10T09:13:49;16.40;;;9.40;;
32491;SDS011;20605;49.742;18.802;2023-01-10T09:16:16;8.20;;;5.90;;
32491;SDS011;20605;49.742;18.802;2023-01-10T09:18:47;17.30;;;11.60;;
32491;SDS011;20605;49.742;18.802;2023-01-10T09:21:26;11.90;;;7.40;;
32491;SDS011;20605;49.742;18.802;2023-01-10T11:07:02;18.70;;;13.70;;
32491;SDS011;20605;49.742;18.802;2023-01-10T11:10:34;24.10;;;15.70;;
32491;SDS011;20605;49.742;18.802;2023-01-10T11:13:03;29.80;;;22.00;;
32491;SDS011;20605;49.742;18.802;2023-01-10T11:15:44;63.60;;;46.20;;
32491;SDS011;20605;49.742;18.802;2023-01-10T11:18:21;26.10;;;18.60;;
32491;SDS011;20605;49.742;18.802;2023-01-10T11:20:56;23.20;;;15.70;;
32491;SDS011;20605;49.742;18.802;2023-01-10T11:26:21;24.90;;;14.10;;
32491;SDS011;20605;49.742;18.802;2023-01-10T11:28:52;34.80;;;22.40;;
32491;SDS011;20605;49.742;18.802;2023-01-10T11:31:35;62.30;;;34.90;;
32491;SDS011;20605;49.742;18.802;2023-01-10T11:34:03;40.90;;;24.90;;
32491;SDS011;20605;49.742;18.802;2023-01-10T11:36:52;68.70;;;39.00;;
32491;SDS011;20605;49.742;18.802;2023-01-10T11:39:25;40.30;;;23.20;;
32491;SDS011;20605;49.742;18.802;2023-01-10T11:44:49;51.90;;;28.40;;
32491;SDS011;20605;49.742;18.802;2023-01-10T11:47:34;35.50;;;20.60;;
32491;SDS011;20605;49.742;18.802;2023-01-10T11:50:07;48.20;;;28.80;;
32491;SDS011;20605;49.742;18.802;2023-01-10T11:52:41;51.80;;;31.30;;
32491;SDS011;20605;49.742;18.802;2023-01-10T11:55:09;82.00;;;38.40;;
32491;SDS011;20605;49.742;18.802;2023-01-10T12:13:59;30.40;;;17.30;;
32491;SDS011;20605;49.742;18.802;2023-01-10T12:17:34;43.80;;;23.90;;
32491;SDS011;20605;49.742;18.802;2023-01-10T12:20:46;18.60;;;12.60;;
32491;SDS011;20605;49.742;18.802;2023-01-10T12:23:17;33.80;;;18.90;;
32491;SDS011;20605;49.742;18.802;2023-01-10T12:25:46;32.10;;;19.10;;
32491;SDS011;20605;49.742;18.802;2023-01-10T12:28:15;39.30;;;23.90;;
32491;SDS011;20605;49.742;18.802;2023-01-10T12:30:48;37.10;;;20.30;;
32491;SDS011;20605;49.742;18.802;2023-01-10T12:39:31;39.90;;;20.00;;
32491;SDS011;20605;49.742;18.802;2023-01-10T12:45:07;60.80;;;33.90;;
32491;SDS011;20605;49.742;18.802;2023-01-10T12:50:22;38.90;;;24.30;;
32491;SDS011;20605;49.742;18.802;2023-01-10T12:53:01;50.60;;;31.50;;
32491;SDS011;20605;49.742;18.802;2023-01-10T12:55:29;58.10;;;33.70;;
32491;SDS011;20605;49.742;18.802;2023-01-10T12:58:02;45.70;;;27.90;;
32491;SDS011;20605;49.742;18.802;2023-01-10T13:00:34;30.10;;;21.30;;
32491;SDS011;20605;49.742;18.802;2023-01-10T13:03:03;24.00;;;16.80;;
32491;SDS011;20605;49.742;18.802;2023-01-10T13:05:35;17.80;;;12.30;;
32491;SDS011;20605;49.742;18.802;2023-01-10T13:08:06;21.60;;;12.80;;
32491;SDS011;20605;49.742;18.802;2023-01-10T13:10:38;14.30;;;10.30;;
32491;SDS011;20605;49.742;18.802;2023-01-10T13:21:47;16.30;;;10.90;;
32491;SDS011;20605;49.742;18.802;2023-01-10T13:24:21;24.80;;;15.70;;
32491;SDS011;20605;49.742;18.802;2023-01-10T13:29:25;19.60;;;13.20;;
32491;SDS011;20605;49.742;18.802;2023-01-10T13:32:00;14.70;;;9.40;;
32491;SDS011;20605;49.742;18.802;2023-01-10T13:34:31;13.90;;;7.60;;
32491;SDS011;20605;49.742;18.802;2023-01-10T13:39:41;13.20;;;8.90;;
32491;SDS011;20605;49.742;18.802;2023-01-10T13:52:53;18.70;;;12.10;;
32491;SDS011;20605;49.742;18.802;2023-01-10T14:06:53;20.20;;;12.60;;
32491;SDS011;20605;49.742;18.802;2023-01-10T14:11:56;21.20;;;14.10;;
32491;SDS011;20605;49.742;18.802;2023-01-10T14:14:30;22.10;;;14.80;;
32491;SDS011;20605;49.742;18.802;2023-01-10T14:22:28;33.60;;;23.50;;
32491;SDS011;20605;49.742;18.802;2023-01-10T14:24:59;44.90;;;26.60;;
32491;SDS011;20605;49.742;18.802;2023-01-10T14:27:36;35.10;;;24.60;;
32491;SDS011;20605;49.742;18.802;2023-01-10T14:30:13;32.70;;;22.30;;
32491;SDS011;20605;49.742;18.802;2023-01-10T14:32:41;44.80;;;30.60;;
32491;SDS011;20605;49.742;18.802;2023-01-10T14:35:13;68.20;;;49.30;;
32491;SDS011;20605;49.742;18.802;2023-01-10T14:37:43;64.40;;;46.20;;
32491;SDS011;20605;49.742;18.802;2023-01-10T14:43:26;30.30;;;24.10;;
32491;SDS011;20605;49.742;18.802;2023-01-10T14:45:59;26.00;;;19.30;;
32491;SDS011;20605;49.742;18.802;2023-01-10T14:48:50;44.50;;;36.80;;
32491;SDS011;20605;49.742;18.802;2023-01-10T14:51:24;36.10;;;30.70;;
32491;SDS011;20605;49.742;18.802;2023-01-10T14:54:03;42.40;;;37.70;;
32491;SDS011;20605;49.742;18.802;2023-01-10T14:56:37;26.80;;;23.90;;
32491;SDS011;20605;49.742;18.802;2023-01-10T14:59:15;37.80;;;33.90;;
32491;SDS011;20605;49.742;18.802;2023-01-10T15:01:41;22.20;;;19.80;;
32491;SDS011;20605;49.742;18.802;2023-01-10T15:04:14;27.70;;;21.20;;
32491;SDS011;20605;49.742;18.802;2023-01-10T15:09:26;67.00;;;35.50;;
32491;SDS011;20605;49.742;18.802;2023-01-10T15:11:55;38.30;;;25.20;;
32491;SDS011;20605;49.742;18.802;2023-01-10T15:14:23;23.40;;;19.60;;
32491;SDS011;20605;49.742;18.802;2023-01-10T15:16:55;36.20;;;22.90;;
32491;SDS011;20605;49.742;18.802;2023-01-10T15:19:32;41.50;;;24.50;;
32491;SDS011;20605;49.742;18.802;2023-01-10T15:22:00;24.60;;;17.60;;
32491;SDS011;20605;49.742;18.802;2023-01-10T15:24:30;34.90;;;22.80;;
32491;SDS011;20605;49.742;18.802;2023-01-10T15:27:02;44.70;;;26.20;;
32491;SDS011;20605;49.742;18.802;2023-01-10T15:29:33;52.90;;;29.10;;
32491;SDS011;20605;49.742;18.802;2023-01-10T15:32:09;55.40;;;34.00;;
32491;SDS011;20605;49.742;18.802;2023-01-10T15:34:40;42.80;;;27.30;;
32491;SDS011;20605;49.742;18.802;2023-01-10T15:37:11;51.10;;;30.10;;
32491;SDS011;20605;49.742;18.802;2023-01-10T15:39:52;42.50;;;28.70;;
32491;SDS011;20605;49.742;18.802;2023-01-10T15:42:19;56.10;;;35.70;;
32491;SDS011;20605;49.742;18.802;2023-01-10T15:44:47;40.20;;;25.50;;
32491;SDS011;20605;49.742;18.802;2023-01-10T15:47:30;39.00;;;23.50;;
32491;SDS011;20605;49.742;18.802;2023-01-10T15:50:01;37.20;;;23.10;;
32491;SDS011;20605;49.742;18.802;2023-01-10T15:52:50;41.60;;;33.40;;
32491;SDS011;20605;49.742;18.802;2023-01-10T16:00:53;37.10;;;28.10;;
32491;SDS011;20605;49.742;18.802;2023-01-10T16:06:00;37.50;;;27.00;;
32491;SDS011;20605;49.742;18.802;2023-01-10T16:08:31;52.60;;;31.10;;
32491;SDS011;20605;49.742;18.802;2023-01-10T16:11:00;50.50;;;28.00;;
32491;SDS011;20605;49.742;18.802;2023-01-10T16:14:01;79.00;;;37.30;;
32491;SDS011;20605;49.742;18.802;2023-01-10T16:16:27;61.80;;;34.00;;
32491;SDS011;20605;49.742;18.802;2023-01-10T16:18:53;53.30;;;34.40;;
32491;SDS011;20605;49.742;18.802;2023-01-10T16:21:19;45.90;;;29.60;;
32491;SDS011;20605;49.742;18.802;2023-01-10T16:23:46;80.00;;;56.90;;
32491;SDS011;20605;49.742;18.802;2023-01-10T16:26:11;61.90;;;44.60;;
32491;SDS011;20605;49.742;18.802;2023-01-10T16:28:39;48.10;;;31.90;;
32491;SDS011;20605;49.742;18.802;2023-01-10T16:31:05;56.60;;;35.60;;
32491;SDS011;20605;49.742;18.802;2023-01-10T16:33:36;42.10;;;26.00;;
32491;SDS011;20605;49.742;18.802;2023-01-10T16:36:02;46.80;;;28.80;;
32491;SDS011;20605;49.742;18.802;2023-01-10T16:38:29;42.30;;;28.00;;
32491;SDS011;20605;49.742;18.802;2023-01-10T16:40:58;80.40;;;42.20;;
32491;SDS011;20605;49.742;18.802;2023-01-10T16:43:49;70.80;;;41.60;;
32491;SDS011;20605;49.742;18.802;2023-01-10T16:46:17;57.20;;;32.10;;
32491;SDS011;20605;49.742;18.802;2023-01-10T16:48:43;53.60;;;32.00;;
32491;SDS011;20605;49.742;18.802;2023-01-10T16:51:21;58.00;;;37.30;;
32491;SDS011;20605;49.742;18.802;2023-01-10T16:53:53;42.80;;;30.10;;
32491;SDS011;20605;49.742;18.802;2023-01-10T16:56:26;40.60;;;27.30;;
32491;SDS011;20605;49.742;18.802;2023-01-10T16:58:54;38.20;;;24.80;;
32491;SDS011;20605;49.742;18.802;2023-01-10T17:01:23;28.70;;;20.00;;
32491;SDS011;20605;49.742;18.802;2023-01-10T17:03:54;27.00;;;20.40;;
32491;SDS011;20605;49.742;18.802;2023-01-10T17:06:21;37.20;;;27.20;;
32491;SDS011;20605;49.742;18.802;2023-01-10T17:08:59;44.90;;;33.20;;
32491;SDS011;20605;49.742;18.802;2023-01-10T17:11:31;40.50;;;28.20;;
32491;SDS011;20605;49.742;18.802;2023-01-10T17:14:02;38.30;;;27.50;;
32491;SDS011;20605;49.742;18.802;2023-01-10T17:16:33;39.20;;;26.40;;
32491;SDS011;20605;49.742;18.802;2023-01-10T17:19:00;43.10;;;28.70;;
32491;SDS011;20605;49.742;18.802;2023-01-10T17:21:27;40.40;;;27.30;;
32491;SDS011;20605;49.742;18.802;2023-01-10T17:23:53;36.10;;;24.90;;
32491;SDS011;20605;49.742;18.802;2023-01-10T17:26:19;46.10;;;30.70;;
32491;SDS011;20605;49.742;18.802;2023-01-10T17:28:45;42.40;;;30.60;;
32491;SDS011;20605;49.742;18.802;2023-01-10T17:31:17;43.90;;;32.90;;
32491;SDS011;20605;49.742;18.802;2023-01-10T17:33:44;62.20;;;41.60;;
32491;SDS011;20605;49.742;18.802;2023-01-10T17:36:11;96.10;;;64.10;;
32491;SDS011;20605;49.742;18.802;2023-01-10T17:38:37;115.80;;;81.10;;
32491;SDS011;20605;49.742;18.802;2023-01-10T17:41:05;138.70;;;97.80;;
32491;SDS011;20605;49.742;18.802;2023-01-10T17:43:31;71.40;;;44.70;;
32491;SDS011;20605;49.742;18.802;2023-01-10T17:45:58;88.80;;;52.40;;
32491;SDS011;20605;49.742;18.802;2023-01-10T17:48:24;53.30;;;34.30;;
32491;SDS011;20605;49.742;18.802;2023-01-10T17:50:54;59.30;;;39.30;;
32491;SDS011;20605;49.742;18.802;2023-01-10T17:53:28;76.70;;;49.00;;
32491;SDS011;20605;49.742;18.802;2023-01-10T18:48:45;52.40;;;37.60;;
32491;SDS011;20605;49.742;18.802;2023-01-10T18:51:14;47.70;;;36.50;;
32491;SDS011;20605;49.742;18.802;2023-01-10T18:53:43;55.20;;;37.60;;
32491;SDS011;20605;49.742;18.802;2023-01-10T18:56:10;52.30;;;37.90;;
32491;SDS011;20605;49.742;18.802;2023-01-10T18:58:39;46.10;;;34.30;;
32491;SDS011;20605;49.742;18.802;2023-01-10T19:01:16;48.70;;;35.20;;
32491;SDS011;20605;49.742;18.802;2023-01-10T19:03:43;51.20;;;34.80;;
32491;SDS011;20605;49.742;18.802;2023-01-10T19:06:11;44.30;;;31.60;;
32491;SDS011;20605;49.742;18.802;2023-01-10T19:08:49;44.00;;;30.60;;
32491;SDS011;20605;49.742;18.802;2023-01-10T19:11:16;51.50;;;33.80;;
32491;SDS011;20605;49.742;18.802;2023-01-10T19:13:44;47.40;;;31.60;;
32491;SDS011;20605;49.742;18.802;2023-01-10T19:16:20;54.00;;;34.50;;
32491;SDS011;20605;49.742;18.802;2023-01-10T19:18:55;60.70;;;41.30;;
32491;SDS011;20605;49.742;18.802;2023-01-10T19:21:22;49.20;;;33.00;;
32491;SDS011;20605;49.742;18.802;2023-01-10T19:23:50;50.10;;;32.50;;
32491;SDS011;20605;49.742;18.802;2023-01-10T19:26:21;51.10;;;32.00;;